NCAR-RAP Real-Time Weather Data

Output produced by METARs form (06 May 2021  16:23 UTC)
found at http://weather.rap.ucar.edu/surface/
 
KCSG 061551Z 33009KT 10SM CLR 20/07 A3011 RMK AO2 SLP191 T02000072
KCSG 061451Z 36006KT 10SM CLR 18/07 A3010 RMK AO2 SLP189 T01830072 58001
KCSG 061351Z 35006KT 10SM CLR 17/08 A3010 RMK AO2 SLP190 T01720083
KCSG 061251Z 02007KT 10SM CLR 16/08 A3011 RMK AO2 SLP193 T01560083
KCSG 061151Z AUTO 34005KT 10SM CLR 14/10 A3010 RMK AO2 SLP191 T01390100 10172 20128 53012
KCSG 061051Z AUTO 00000KT 10SM CLR 13/12 A3009 RMK AO2 SLP185 T01330117
KCSG 060951Z AUTO 00000KT 10SM CLR 14/12 A3007 RMK AO2 SLP181 T01440117
KCSG 060851Z AUTO 03003KT 10SM CLR 15/12 A3007 RMK AO2 SLP179 T01500117 53008
KCSG 060751Z AUTO 36003KT 10SM CLR 16/13 A3005 RMK AO2 SLP172 T01560133
KCSG 060651Z AUTO 36004KT 10SM CLR 17/14 A3004 RMK AO2 SLP168 T01670139
KCSG 060551Z AUTO 35004KT 10SM CLR 17/14 A3004 RMK AO2 SLP170 T01720144 10228 20172 51003
KCSG 060451Z AUTO 34004KT 10SM CLR 18/15 A3004 RMK AO2 SLP170 T01830150 402390178
KCSG 060351Z AUTO 33003KT 10SM CLR 19/15 A3004 RMK AO2 SLP169 T01940150
KCSG 060251Z AUTO 36008KT 10SM FEW055 21/16 A3004 RMK AO2 SLP167 T02060161 53016
KCSG 060151Z AUTO 27004KT 10SM FEW027 FEW044 21/18 A3002 RMK AO2 SLP161 T02110178
KCSG 060051Z AUTO 26004KT 10SM CLR 22/18 A3000 RMK AO2 SLP155 T02170178